Date,TemperatureHighF,TemperatureAvgF,TemperatureLowF,DewpointHighF,DewpointAvgF,DewpointLowF,HumidityHigh,HumidityAvg,HumidityLow,PressureMaxIn,PressureMinIn,WindSpeedMaxMPH,WindSpeedAvgMPH,GustSpeedMaxMPH,PrecipitationSumIn
2013-1-1,14.0,9.1,3.2,5.7,3.0,-0.8,84,76,65,30.29,30.18,8,5,11,0.00
2013-1-2,26.5,20.3,9.0,20.8,12.9,1.9,83,73,55,30.23,30.11,7,3,11,0.00
2013-1-3,25.8,22.6,13.8,21.0,17.8,9.0,86,82,77,30.28,30.10,14,9,19,0.00
2013-1-4,29.1,21.3,11.7,19.9,14.9,6.8,84,76,67,30.25,30.13,18,10,23,0.00
2013-1-5,34.9,23.5,15.8,32.3,-2.8,-99.9,92,65,75,30.25,29.92,14,-223,21,0.03
2013-1-6,34.7,26.3,16.9,31.5,21.6,13.7,89,82,75,30.35,29.90,16,8,23,0.00
2013-1-7,37.6,27.6,13.9,26.8,20.8,10.7,89,76,61,30.34,30.10,15,6,21,0.00
2013-1-8,40.8,33.5,21.8,31.0,27.4,19.4,92,79,65,30.17,29.99,12,3,19,0.00
2013-1-9,41.0,35.0,24.8,31.6,26.6,21.2,87,72,53,30.50,29.96,26,12,30,0.00
2013-1-10,42.7,31.1,18.6,35.1,27.1,15.9,94,85,66,30.54,29.93,6,2,12,0.62
2013-1-11,50.9,43.3,36.1,46.6,41.3,34.8,95,93,83,29.93,29.65,14,3,21,0.09
2013-1-12,50.5,37.6,25.5,45.7,31.2,19.4,86,77,68,30.02,29.66,21,11,27,0.01
2013-1-13,25.7,19.4,13.8,21.5,13.1,5.8,88,76,69,30.25,29.91,14,9,19,0.04
2013-1-14,23.1,16.0,9.7,12.1,8.1,5.0,84,71,48,30.51,30.26,12,4,14,0.00
2013-1-15,29.1,19.1,8.2,17.5,12.2,4.9,88,75,51,30.49,30.15,9,2,12,0.00
2013-1-16,34.0,26.6,14.6,29.4,19.5,9.4,88,75,58,30.15,29.82,21,9,26,0.00
2013-1-17,30.3,20.2,11.0,17.9,9.0,2.3,88,62,44,30.45,30.10,14,5,18,0.00
2013-1-18,40.7,29.4,9.6,31.4,22.3,6.5,88,75,65,30.47,29.87,17,7,32,0.00
2013-1-19,43.4,37.7,19.2,34.1,28.2,5.7,82,69,31,29.92,29.68,32,13,38,0.00
2013-1-20,19.1,11.9,8.1,6.9,0.7,-1.9,69,60,48,30.33,29.94,22,9,29,0.00
2013-1-21,11.6,5.2,-1.4,4.6,-4.7,-9.7,78,63,52,30.34,30.18,17,10,26,0.00
2013-1-22,7.5,1.4,-5.5,-2.1,-7.5,-12.8,79,66,57,30.45,30.34,14,7,19,0.00
2013-1-23,17.8,11.9,2.4,13.0,4.5,-2.7,84,72,58,30.44,30.14,19,8,28,0.00
2013-1-24,18.7,10.3,0.7,9.8,0.6,-5.9,74,65,50,30.71,30.44,11,4,18,0.00
2013-1-25,26.2,20.1,16.6,17.4,12.4,4.6,85,72,54,30.42,29.99,14,6,17,0.02
2013-1-26,25.7,17.9,9.3,13.1,8.2,4.4,81,66,48,30.44,30.23,8,2,11,0.00
2013-1-27,34.4,27.7,22.7,32.2,22.3,13.1,94,80,65,30.41,29.91,6,2,12,0.12
2013-1-28,41.5,37.2,30.9,39.0,34.3,28.8,95,89,75,29.97,29.81,13,4,17,0.07
2013-1-29,58.4,44.7,35.8,55.0,42.9,34.0,96,94,86,29.84,29.46,16,3,22,1.26
2013-1-30,36.3,28.9,16.7,34.7,26.0,11.8,94,89,80,29.62,29.28,18,8,22,0.24
2013-1-31,17.2,11.6,3.5,12.5,5.3,-3.0,84,76,67,30.18,29.62,17,12,23,0.00
2013-2-1,8.6,2.3,-3.4,5.0,-3.6,-8.4,85,76,67,30.39,30.20,15,9,20,0.01
2013-2-2,11.8,8.3,0.2,8.9,3.1,-3.5,88,79,65,30.21,30.09,10,3,12,0.04
2013-2-3,18.8,12.8,2.3,12.8,7.3,-1.2,87,79,63,30.10,30.00,14,5,20,0.01
2013-2-4,19.8,14.6,5.3,14.3,9.8,1.4,88,81,67,30.08,29.97,8,3,12,0.07
2013-2-5,27.8,18.1,0.3,23.0,13.8,-3.3,89,83,73,30.15,29.84,13,5,21,0.02
2013-2-6,33.7,20.2,-1.1,29.4,14.8,-5.1,90,80,66,30.28,30.13,7,1,10,0.00
2013-2-7,34.1,31.8,22.6,31.7,29.2,19.6,94,90,84,30.15,29.92,3,1,4,0.46
2013-2-8,22.7,18.8,6.7,19.6,15.4,3.6,91,86,82,30.45,30.06,8,3,14,0.00
2013-2-9,28.7,19.9,6.0,24.3,16.8,3.0,92,88,82,30.45,30.14,6,1,11,0.00
2013-2-10,44.6,33.3,15.2,41.7,31.0,12.5,95,91,74,30.13,29.45,13,3,19,0.49
2013-2-11,40.8,31.5,26.8,33.5,25.5,20.2,83,78,73,30.01,29.46,32,19,44,0.00
2013-2-12,26.8,23.6,18.5,21.0,18.4,15.6,91,80,73,30.12,29.92,14,7,18,0.00
2013-2-13,37.5,28.8,14.8,29.7,24.0,11.8,92,82,70,29.92,29.74,12,3,14,0.00
2013-2-14,37.0,33.7,28.2,32.2,27.7,20.5,90,79,66,30.00,29.61,18,8,23,0.00
2013-2-15,28.5,21.3,14.1,24.6,11.5,5.5,86,66,48,30.23,30.00,14,7,18,0.00
2013-2-16,15.6,11.3,5.0,5.5,2.9,-0.8,85,69,51,30.25,30.19,12,4,17,0.00
2013-2-17,26.7,14.9,1.6,13.7,4.9,-2.2,86,66,43,30.28,30.04,7,1,10,0.00
2013-2-18,47.0,35.6,24.1,41.5,28.7,13.7,93,76,64,30.03,29.46,20,4,23,0.41
2013-2-19,28.8,14.6,8.7,25.6,9.1,0.4,88,78,67,30.22,29.53,20,14,28,0.00
2013-2-20,19.4,12.1,6.3,11.7,5.2,-0.2,87,74,64,30.44,30.22,12,6,17,0.00
2013-2-21,26.6,19.9,10.4,23.2,15.8,6.6,88,84,79,30.48,30.11,8,3,17,0.00
2013-2-22,30.9,27.7,24.7,27.0,24.6,22.1,92,88,83,30.10,29.82,8,4,11,0.32
2013-2-23,27.2,24.8,20.8,23.8,19.4,15.8,87,80,71,29.97,29.88,13,9,17,0.00
2013-2-24,35.2,23.9,10.9,23.9,18.0,7.8,91,79,60,30.19,29.98,6,2,8,0.00
2013-2-25,42.2,26.5,11.8,26.8,19.9,8.7,90,77,53,30.22,30.07,4,0,7,0.00
2013-2-26,34.9,32.7,31.0,30.6,27.7,25.0,93,82,68,30.07,29.61,12,7,24,0.18
2013-2-27,33.8,31.5,29.2,30.3,28.7,25.9,92,89,86,29.77,29.60,11,8,15,0.05
2013-2-28,34.0,30.9,24.7,29.7,25.9,19.1,90,82,74,30.14,29.77,13,8,19,0.00
2013-3-1,24.8,23.8,22.0,19.5,18.4,15.6,83,80,76,30.28,30.13,11,8,17,0.00
2013-3-2,23.6,17.7,4.7,15.9,11.2,1.2,88,76,67,30.28,30.22,10,6,13,0.00
2013-3-3,27.2,13.3,-0.9,12.6,4.9,-4.8,89,71,44,30.22,30.15,7,2,10,0.00
2013-3-4,33.8,21.8,4.1,23.5,15.3,0.3,86,76,61,30.19,30.08,6,2,13,0.00
2013-3-5,31.4,29.1,26.0,27.7,25.1,21.7,91,85,76,30.08,29.90,11,5,19,0.44
2013-3-6,32.2,29.2,26.0,25.8,24.2,21.8,87,81,76,30.34,30.08,12,8,16,0.00
2013-3-7,32.8,26.2,13.9,23.5,18.9,10.9,91,74,59,30.47,30.33,9,3,11,0.00
2013-3-8,40.3,25.2,8.2,28.9,19.5,4.8,93,80,59,30.52,30.34,8,1,9,0.00
2013-3-9,42.2,35.2,26.6,33.4,29.2,23.0,90,79,64,30.34,29.85,5,1,13,0.09
2013-3-10,44.1,40.1,36.0,42.8,38.4,33.4,95,94,87,29.85,29.63,6,1,14,0.61
2013-3-11,39.0,34.2,31.3,37.7,32.2,27.0,95,93,84,29.77,29.56,12,6,19,0.01
2013-3-12,32.0,28.7,25.4,27.4,23.8,17.9,90,82,62,30.03,29.77,16,9,25,0.00
2013-3-13,30.0,24.4,19.0,20.8,12.5,7.4,84,62,40,30.35,30.03,15,9,25,0.00
2013-3-14,34.2,25.0,14.1,27.3,18.9,10.4,90,78,52,30.35,30.12,8,2,12,0.00
2013-3-15,36.5,31.6,27.5,33.6,28.6,25.5,93,88,80,30.11,29.83,6,2,16,0.06
2013-3-16,31.3,28.1,24.1,27.7,22.5,19.0,90,80,64,30.17,29.82,10,6,16,0.00
2013-3-17,33.2,26.6,19.7,22.9,17.1,10.2,81,67,54,30.29,30.05,10,4,19,0.00
2013-3-18,33.9,28.6,18.9,30.1,24.2,12.0,90,83,71,30.05,29.62,23,7,33,0.15
2013-3-19,27.7,20.0,12.8,13.5,10.1,6.5,79,66,49,30.08,29.75,22,16,34,0.00
2013-3-20,20.1,15.2,10.5,9.8,4.3,-0.3,66,62,54,30.13,30.07,17,10,25,0.00
2013-3-21,26.6,17.9,9.8,13.4,8.4,2.6,84,67,53,30.11,30.06,11,5,17,0.00
2013-3-22,31.8,22.3,12.4,17.5,12.8,8.1,88,68,43,30.13,30.07,8,2,12,0.00
2013-3-23,40.1,28.1,16.6,25.1,19.1,13.9,89,71,41,30.19,30.10,7,1,14,0.00
2013-3-24,35.9,31.9,29.5,27.7,24.9,21.2,82,75,70,30.10,29.78,13,6,26,0.00
2013-3-25,33.7,30.6,27.1,25.6,23.9,20.9,84,76,67,30.13,29.81,14,8,22,0.00
2013-3-26,38.6,34.1,30.3,27.2,25.1,23.3,79,70,60,30.28,30.13,12,6,17,0.00
2013-3-27,38.7,34.5,25.9,25.4,22.4,17.9,85,62,43,30.34,30.28,9,4,13,0.00
2013-3-28,42.9,33.3,24.2,24.7,21.7,18.6,89,65,39,30.38,30.33,9,2,10,0.00
2013-3-29,46.9,35.5,23.6,27.6,22.0,18.1,89,62,33,30.36,30.27,7,2,11,0.00
2013-3-30,54.0,40.7,23.7,40.3,31.0,20.7,89,70,47,30.27,29.84,13,3,20,0.00
2013-3-31,48.7,40.6,33.2,40.2,33.5,19.9,90,76,56,29.91,29.71,21,10,29,0.00
2013-4-1,34.2,30.2,26.8,21.3,15.0,10.8,74,53,39,30.22,29.91,15,8,23,0.00
2013-4-2,37.5,30.6,22.6,19.2,14.2,9.9,78,52,33,30.36,30.22,13,6,18,0.00
2013-4-3,43.6,32.4,20.5,19.8,14.8,4.2,85,52,22,30.49,30.33,8,2,10,0.00
2013-4-4,54.4,40.6,24.2,34.2,24.8,13.5,76,54,40,30.33,29.99,20,7,25,0.00
2013-4-5,47.4,37.8,27.7,30.6,25.1,20.4,87,61,42,30.27,30.06,8,3,15,0.00
2013-4-6,62.7,47.7,33.9,48.3,34.3,22.3,86,61,40,30.19,29.57,24,5,28,0.16
2013-4-7,54.1,43.6,35.3,48.1,35.3,30.7,86,73,52,30.00,29.57,16,7,22,0.00
2013-4-8,52.3,42.1,35.2,45.3,38.3,30.3,93,86,77,30.02,29.59,14,3,18,0.61
2013-4-9,41.0,38.6,37.2,39.7,36.7,35.0,95,93,91,30.05,29.92,10,4,17,2.04
2013-4-10,38.7,36.6,34.0,36.3,34.5,31.7,93,92,89,30.08,29.88,14,6,20,0.97
2013-4-11,37.9,37.1,35.3,36.3,35.4,33.2,95,93,92,29.94,29.60,9,5,17,0.53
2013-4-12,41.3,37.6,35.5,36.3,34.0,28.8,95,87,75,29.83,29.55,14,8,19,0.04
2013-4-13,38.2,35.4,30.0,30.0,27.8,24.4,86,74,60,30.03,29.82,16,10,22,0.00
2013-4-14,52.4,39.1,30.1,46.1,34.4,26.9,93,84,67,30.05,29.64,9,3,16,0.11
2013-4-15,61.7,51.3,41.2,50.5,44.8,34.6,94,80,44,29.98,29.64,22,8,26,0.69
2013-4-16,52.4,42.8,35.8,38.2,33.8,31.1,90,72,46,30.33,29.97,10,5,16,0.01
2013-4-17,42.6,40.8,38.9,41.0,36.0,30.6,94,83,68,30.34,29.88,11,4,17,0.95
2013-4-18,59.0,47.7,39.8,57.5,45.4,33.8,95,92,79,29.88,29.39,25,6,36,1.50
2013-4-19,39.5,36.5,32.0,34.4,28.5,24.2,84,73,58,29.94,29.41,27,18,40,0.01
2013-4-20,43.8,33.9,28.0,25.2,19.5,13.8,81,58,31,30.46,29.94,13,6,18,0.00
2013-4-21,51.4,40.0,27.0,31.2,25.5,21.0,90,59,36,30.57,30.33,8,3,15,0.00
2013-4-22,66.9,53.8,41.7,38.3,33.0,-99.9,64,47,29,30.33,30.05,10,-1,14,0.00
2013-4-23,52.4,44.2,36.8,47.2,39.0,32.4,90,82,55,30.04,29.90,14,5,17,0.37
2013-4-24,50.2,42.0,34.6,32.5,26.9,19.5,80,57,31,30.08,29.97,14,8,20,0.00
2013-4-25,49.1,43.5,36.4,36.4,31.5,25.4,83,64,40,30.33,30.01,16,9,21,0.00
2013-4-26,65.1,51.2,31.1,45.5,37.5,27.2,89,62,44,30.34,30.20,17,6,23,0.00
2013-4-27,67.4,55.9,44.6,47.0,43.3,39.0,89,64,38,30.27,30.03,10,3,15,0.00
2013-4-28,67.8,56.5,49.1,50.9,44.4,-99.9,90,66,45,30.03,29.81,5,1,8,0.00
2013-4-29,70.7,59.7,45.9,55.8,50.5,44.0,94,73,52,29.89,29.75,11,3,15,0.04
2013-4-30,83.8,71.6,60.8,59.4,54.6,47.4,83,58,29,29.89,29.72,16,7,25,0.00
2013-5-1,82.9,71.0,51.4,57.5,51.9,41.3,71,53,25,30.19,29.90,13,5,16,0.00
2013-5-2,56.7,47.8,40.2,47.4,40.2,35.0,90,75,56,30.26,30.19,10,5,14,0.46
2013-5-3,48.2,43.2,38.2,46.3,40.7,35.8,93,91,86,30.22,30.02,6,4,12,0.46
2013-5-4,70.3,58.7,46.5,49.1,44.8,-99.9,89,63,41,30.07,30.00,6,-2,13,0.00
2013-5-5,72.7,59.8,46.0,45.7,41.9,36.1,85,55,31,30.07,30.02,7,1,10,0.00
2013-5-6,74.8,60.9,44.1,45.3,38.8,29.7,84,49,20,30.08,30.00,6,1,11,0.00
2013-5-7,77.5,66.2,50.2,48.0,41.2,31.8,78,44,22,30.05,30.00,4,1,9,0.00
2013-5-8,78.8,62.8,45.4,50.7,43.3,35.1,88,54,22,30.05,29.97,6,1,8,0.00
2013-5-9,68.3,56.3,43.8,58.1,49.4,41.6,92,79,55,29.97,29.89,6,2,15,0.30
2013-5-10,48.9,45.1,41.0,44.1,42.0,39.1,94,89,82,30.01,29.85,11,5,17,0.83
2013-5-11,52.0,46.0,39.1,48.4,38.3,24.2,95,77,36,30.04,29.82,22,9,30,0.04
2013-5-12,52.4,44.3,38.0,34.2,28.3,23.6,80,55,33,30.13,30.04,16,10,20,0.00
2013-5-13,61.2,46.9,32.3,37.3,31.5,22.4,95,59,28,30.20,29.98,10,2,13,0.00
2013-5-14,84.4,67.3,46.7,60.6,49.1,34.3,74,53,31,29.98,29.56,16,5,20,0.02
2013-5-15,77.9,70.6,55.7,60.2,48.5,37.3,76,47,26,29.83,29.56,13,6,21,0.00
2013-5-16,80.6,55.7,53.5,52.2,22.4,-99.9,86,44,27,29.97,29.82,9,-164,16,0.00
2013-5-17,63.4,41.3,50.4,50.1,5.9,-99.9,90,50,56,30.08,29.96,9,-279,15,0.09
2013-5-18,78.8,64.8,52.1,61.8,54.4,45.9,86,70,52,30.07,29.94,4,1,9,0.00
2013-5-19,84.3,70.0,54.6,66.7,60.3,52.4,94,73,49,29.95,29.67,12,2,12,0.03
2013-5-20,82.8,74.2,64.0,64.0,60.1,56.4,90,64,41,29.74,29.64,17,4,24,0.08
2013-5-21,77.1,69.1,60.0,64.7,60.2,56.2,93,75,49,29.68,29.61,16,5,22,0.08
2013-5-22,68.4,59.8,54.9,63.7,57.2,52.9,94,91,83,29.76,29.61,7,1,11,0.04
2013-5-23,57.3,50.5,39.8,53.3,45.6,35.4,95,84,64,30.33,29.76,12,5,18,0.14
2013-5-24,62.7,48.0,34.6,43.4,36.3,31.7,91,67,37,30.47,30.33,7,2,10,0.00
2013-5-25,60.0,51.7,42.2,42.1,37.8,32.2,88,61,38,30.42,30.31,4,1,7,0.00
2013-5-26,66.7,53.0,37.8,51.4,42.4,34.6,91,70,40,30.32,30.17,5,1,11,0.04
2013-5-27,53.9,52.1,50.3,51.9,49.0,42.9,96,90,70,30.18,29.91,4,1,11,0.04
2013-5-28,70.8,61.5,50.9,67.4,59.5,49.8,97,93,80,29.91,29.69,12,2,14,1.36
2013-5-29,82.6,70.8,62.9,68.0,64.4,60.4,97,82,59,29.91,29.76,10,2,13,0.00
2013-5-30,83.1,74.4,63.5,70.6,66.2,61.1,93,76,59,29.87,29.72,20,4,20,0.62
2013-5-31,74.9,68.1,62.8,66.9,63.0,61.1,95,84,64,29.82,29.68,13,3,16,0.16
2013-6-1,75.2,69.1,63.9,66.9,63.6,58.8,96,83,68,29.69,29.60,11,4,17,0.21
2013-6-2,64.4,54.8,46.2,59.3,48.2,43.2,95,79,62,30.03,29.66,15,6,16,0.00
2013-6-3,69.3,56.6,42.9,48.9,43.7,40.6,96,66,39,30.11,30.02,8,2,9,0.01
2013-6-4,70.6,59.2,47.8,49.1,45.5,42.1,89,63,40,30.18,30.07,4,1,11,0.00
2013-6-5,64.8,57.5,52.0,52.8,49.5,44.8,93,75,58,30.15,29.97,3,0,7,0.09
2013-6-6,59.4,55.6,52.0,53.4,51.3,48.7,92,85,75,29.98,29.91,3,0,8,0.02
2013-6-7,70.9,61.1,51.8,51.8,46.2,38.6,86,61,32,29.99,29.91,6,1,10,0.00
2013-6-8,71.9,59.8,46.3,51.5,47.6,43.3,95,67,38,30.02,29.92,6,1,10,0.00
2013-6-9,78.6,66.8,54.1,61.4,55.8,49.6,87,69,47,30.02,29.81,5,1,15,0.00
2013-6-10,77.6,67.7,59.4,66.3,61.8,57.3,94,82,60,29.84,29.75,4,0,8,0.00
2013-6-11,82.3,71.7,59.2,65.6,62.1,57.5,97,74,49,29.91,29.77,11,2,15,0.00
2013-6-12,77.0,63.9,63.1,67.1,50.5,-99.9,95,76,68,29.87,29.63,14,-83,21,0.25
2013-6-13,74.8,65.5,55.5,62.0,56.6,50.7,95,74,54,30.07,29.65,14,4,17,0.01
2013-6-14,76.4,61.9,52.1,58.9,48.3,-99.9,90,67,50,30.15,30.01,3,-30,6,0.00
2013-6-15,79.6,66.1,55.3,69.2,59.5,-99.9,96,82,66,30.08,29.81,14,-9,19,0.53
2013-6-16,81.6,73.4,62.5,69.2,60.5,49.6,93,68,33,29.90,29.83,17,6,18,0.41
2013-6-17,83.6,69.6,58.0,62.7,57.4,53.1,94,69,36,29.97,29.83,13,4,16,0.00
2013-6-18,70.5,61.6,52.9,57.1,51.0,40.8,89,69,45,30.10,29.95,6,2,12,0.00
2013-6-19,75.5,62.4,45.9,52.7,47.4,40.5,89,61,37,30.17,30.08,3,1,9,0.00
2013-6-20,85.2,58.4,54.0,63.8,22.8,-99.9,80,44,37,30.15,30.04,4,-223,8,0.00
2013-6-21,75.3,69.6,60.9,68.6,64.3,56.1,95,84,71,30.10,29.89,18,1,24,1.82
2013-6-22,79.2,71.2,65.7,72.8,66.9,-99.9,96,89,78,30.14,29.94,11,3,13,1.06
2013-6-23,82.8,76.0,71.0,72.8,66.3,-99.9,87,76,70,29.99,29.92,8,4,10,0.00
2013-6-24,79.3,72.6,69.1,70.5,67.5,64.9,94,85,68,30.03,29.82,13,4,16,0.05
2013-6-25,78.8,65.8,65.2,72.5,53.7,-99.9,95,80,75,29.96,29.79,16,-82,26,1.28
2013-6-26,78.4,70.5,66.8,69.3,66.6,64.4,95,88,72,29.82,29.69,12,1,18,0.55
2013-6-27,84.0,73.7,65.7,71.1,67.1,62.9,95,81,51,29.77,29.66,12,3,18,0.55
2013-6-28,74.7,69.6,63.2,64.9,61.8,58.8,94,77,58,29.70,29.58,14,6,22,0.31
2013-6-29,73.0,66.0,62.6,62.3,58.9,53.2,94,79,52,29.78,29.60,11,4,19,0.07
2013-6-30,78.0,67.5,59.4,58.9,51.7,42.0,79,59,33,29.99,29.78,9,3,16,0.00
2013-7-1,73.8,63.2,58.1,53.3,48.9,43.5,77,60,42,30.07,29.99,7,2,13,0.00
2013-7-2,74.1,63.0,55.0,56.5,50.4,40.5,86,66,34,30.09,30.04,6,1,14,0.00
2013-7-3,68.9,64.0,60.1,63.0,58.2,50.4,92,82,69,30.05,30.00,4,1,9,0.01
2013-7-4,80.3,70.3,59.4,65.6,59.7,52.3,94,72,43,30.08,29.98,5,1,7,0.00
2013-7-5,82.9,72.5,62.3,64.9,61.6,58.6,89,70,48,30.07,29.98,7,1,14,0.00
2013-7-6,83.5,72.8,59.3,67.5,61.6,55.5,94,70,43,30.04,29.94,6,1,11,0.00
2013-7-7,85.3,77.0,68.0,71.5,67.9,64.5,92,75,53,29.97,29.90,9,2,13,0.00
2013-7-8,84.5,76.6,71.0,74.4,70.5,67.6,92,82,66,29.95,29.88,14,5,19,0.60
2013-7-9,81.9,74.2,67.3,74.6,70.4,65.5,95,88,72,29.97,29.80,12,3,17,0.58
2013-7-10,77.8,73.2,62.9,74.0,63.1,53.0,90,72,46,29.99,29.81,13,6,18,0.00
2013-7-11,79.4,68.3,58.3,61.1,55.9,50.7,91,68,39,30.11,29.99,6,1,11,0.00
2013-7-12,82.0,68.1,52.9,60.8,54.1,40.2,92,65,34,30.16,30.06,4,0,8,0.00
2013-7-13,81.4,69.8,55.5,62.4,58.0,52.8,94,69,42,30.16,30.09,3,1,10,0.01
2013-7-14,85.5,74.2,61.3,70.1,65.0,58.3,91,74,53,30.21,30.15,3,0,7,0.00
2013-7-15,88.6,77.7,66.4,74.4,69.9,63.6,93,78,58,30.25,30.19,3,0,8,0.00
2013-7-16,88.5,80.2,70.3,75.3,72.4,68.2,95,78,59,30.26,30.19,8,2,13,0.00
2013-7-17,89.3,82.0,74.6,75.2,72.5,68.3,90,74,56,30.26,30.12,12,2,20,0.00
2013-7-18,89.5,82.1,72.7,74.4,71.8,69.0,93,72,54,30.14,29.88,13,5,19,0.00
2013-7-19,87.8,82.4,76.1,73.3,70.8,66.8,81,69,56,29.87,29.70,21,10,29,0.00
2013-7-20,81.5,72.3,62.3,67.1,62.0,57.6,87,71,47,29.95,29.78,6,2,9,0.00
2013-7-21,81.3,67.2,59.9,68.8,61.2,56.1,94,82,60,29.96,29.83,20,1,38,3.27
2013-7-22,83.1,73.3,62.1,69.9,65.5,59.0,96,78,56,29.89,29.67,21,3,29,0.02
2013-7-23,72.5,67.6,57.9,63.3,57.6,52.1,88,71,52,29.99,29.68,12,5,16,0.03
2013-7-24,73.1,62.1,53.2,57.3,52.6,47.7,92,73,45,30.07,29.99,5,1,9,0.01
2013-7-25,76.7,65.7,51.8,62.1,56.5,49.6,94,74,55,30.09,29.95,8,2,12,0.00
2013-7-26,70.3,65.8,62.2,65.7,61.6,57.0,93,86,71,29.97,29.84,9,2,14,0.40
2013-7-27,62.2,57.0,53.4,57.3,49.9,44.8,91,78,62,29.93,29.87,13,7,22,0.00
2013-7-28,65.1,57.9,52.0,53.6,50.6,47.1,91,77,62,30.01,29.84,12,7,17,0.00
2013-7-29,73.3,62.4,56.2,60.0,54.3,51.0,91,76,56,30.18,30.01,6,2,9,0.00
2013-7-30,73.0,63.4,54.4,63.1,58.7,52.4,94,86,64,30.19,30.08,1,0,8,0.37
2013-7-31,74.5,65.9,62.3,65.8,62.6,59.3,95,90,70,30.08,29.94,10,1,20,1.05
2013-8-1,74.6,66.9,59.7,61.7,57.3,49.5,94,74,42,29.99,29.91,11,3,18,0.00
2013-8-2,77.5,68.9,59.1,65.3,60.2,55.8,93,76,49,29.94,29.83,9,3,18,0.29
2013-8-3,74.5,66.1,56.6,60.0,54.0,49.6,90,68,43,30.11,29.94,10,3,14,0.00
2013-8-4,73.3,63.6,53.3,59.6,55.6,50.8,93,77,52,30.21,30.11,4,0,8,0.01
2013-8-5,71.2,63.3,55.0,62.6,58.5,52.8,93,85,68,30.13,29.86,10,1,16,0.02
2013-8-6,79.3,71.0,62.4,70.0,65.7,60.3,94,84,66,29.87,29.78,10,2,13,0.01
2013-8-7,78.7,73.2,62.4,70.4,66.1,59.9,92,80,54,29.95,29.74,10,5,17,0.00
2013-8-8,75.6,66.7,58.8,61.5,56.5,50.9,94,72,45,30.05,29.95,3,0,8,0.01
2013-8-9,76.4,67.0,54.2,65.5,58.9,51.3,92,76,60,30.04,29.96,11,3,15,0.00
2013-8-10,73.8,65.8,57.4,59.8,56.7,50.9,92,74,47,30.13,30.04,6,1,10,0.00
2013-8-11,73.2,64.3,54.0,66.0,59.9,51.6,94,86,70,30.14,30.01,7,1,9,0.10
2013-8-12,78.1,69.3,62.5,67.2,63.5,57.8,95,83,54,30.02,29.86,6,1,12,0.42
2013-8-13,68.1,60.4,52.7,58.4,49.5,44.3,90,68,49,30.16,29.96,9,4,14,0.00
2013-8-14,70.0,59.3,49.3,55.6,49.8,46.4,93,73,46,30.23,30.13,7,1,12,0.00
2013-8-15,73.4,61.9,53.9,59.3,54.6,50.1,93,79,45,30.15,30.07,5,1,7,0.00
2013-8-16,77.7,65.6,55.1,58.8,55.4,50.6,94,73,41,30.19,30.11,2,0,8,0.00
2013-8-17,78.5,64.8,50.9,62.1,55.4,48.9,94,74,45,30.25,30.17,0,0,0,0.01
2013-8-18,78.7,65.4,51.9,61.5,56.1,49.5,93,74,49,30.22,30.09,3,0,6,0.01
2013-8-19,79.4,67.9,55.2,66.1,60.1,52.6,94,78,53,30.11,30.01,12,2,16,0.00
2013-8-20,82.5,72.6,62.9,66.7,64.0,60.2,93,76,56,30.08,29.99,9,2,17,0.01
2013-8-21,85.0,77.0,67.2,69.6,66.6,62.8,88,71,53,30.03,29.89,14,5,21,0.00
2013-8-22,77.7,70.5,64.5,68.9,66.2,61.8,93,86,73,30.11,29.96,19,2,28,0.49
2013-8-23,79.0,67.5,56.8,63.5,58.1,54.8,94,74,46,30.18,30.10,3,0,11,0.01
2013-8-24,82.3,68.4,54.1,66.3,60.4,52.4,95,77,52,30.25,30.15,5,1,9,0.01
2013-8-25,85.8,76.4,65.1,69.7,64.2,57.1,86,67,44,30.20,30.08,15,6,21,0.00
2013-8-26,87.0,78.3,71.6,73.8,68.8,63.8,80,73,62,30.10,29.93,12,6,18,0.00
2013-8-27,90.1,82.1,72.3,73.7,71.6,68.7,89,71,55,29.94,29.76,14,6,21,0.00
2013-8-28,84.4,76.0,67.4,73.0,68.9,64.1,91,79,63,30.01,29.78,7,2,10,0.00
2013-8-29,86.7,73.9,63.1,70.4,65.9,61.0,94,78,50,30.07,29.95,3,0,7,0.00
2013-8-30,90.5,73.6,64.9,74.8,68.0,62.5,93,84,52,29.96,29.73,17,3,29,0.72
2013-8-31,76.8,68.6,62.0,67.9,64.4,60.3,94,87,74,29.86,29.78,3,0,6,0.00
2013-9-1,81.3,69.2,60.1,70.4,64.8,58.3,96,87,67,29.81,29.69,12,3,15,0.26
2013-9-2,69.1,63.6,55.9,62.1,57.6,52.1,93,81,62,30.00,29.81,10,3,14,0.00
2013-9-3,71.5,60.5,51.1,59.8,53.1,48.9,94,79,48,30.09,30.00,7,2,12,0.00
2013-9-4,78.3,65.5,53.2,66.5,58.4,50.7,94,80,55,30.12,30.03,9,2,14,0.02
2013-9-5,71.0,63.7,50.6,62.1,54.4,47.8,93,73,50,30.27,30.13,3,0,11,0.00
2013-9-6,81.7,66.4,47.7,67.8,58.5,45.3,94,77,57,30.24,29.99,6,1,11,0.00
2013-9-7,81.7,72.3,65.9,69.8,65.7,61.4,92,80,60,29.99,29.87,12,2,15,0.00
2013-9-8,70.6,67.5,65.0,66.2,63.2,60.8,90,86,80,30.04,29.95,4,1,14,0.00
2013-9-9,88.1,76.7,64.8,76.1,69.8,62.8,94,80,65,29.97,29.77,7,2,12,0.00
2013-9-10,90.9,82.7,75.1,71.4,64.5,58.3,72,56,35,29.91,29.79,17,9,23,0.00
2013-9-11,80.1,74.0,67.3,67.4,65.4,63.3,90,75,58,30.05,29.91,12,3,15,0.00
2013-9-12,72.3,65.8,58.1,64.8,57.4,46.0,95,76,47,30.11,29.94,14,5,21,0.00
2013-9-13,63.4,54.7,47.1,47.8,43.2,36.8,89,67,40,30.21,30.11,8,3,14,0.00
2013-9-14,68.6,56.3,43.4,49.1,45.4,41.2,93,70,44,30.19,30.02,8,1,11,0.01
2013-9-15,58.6,55.7,53.2,55.6,51.9,45.4,94,87,64,30.22,30.00,8,1,15,0.62
2013-9-16,63.1,53.0,43.4,51.0,45.0,40.1,91,75,53,30.40,30.23,8,3,16,0.00
2013-9-17,67.5,54.9,40.1,54.4,48.5,38.2,95,81,58,30.36,30.12,3,1,10,0.01
2013-9-18,75.5,65.9,56.6,66.7,60.3,53.1,93,83,68,30.12,29.90,7,1,14,0.11
2013-9-19,82.0,72.0,66.3,73.4,67.4,62.3,94,86,62,29.92,29.72,16,2,22,0.75
2013-9-20,71.0,65.9,57.6,65.8,60.0,52.7,94,82,67,29.81,29.70,14,8,20,0.01
2013-9-21,57.7,53.7,48.0,54.2,48.3,44.1,91,82,63,29.96,29.81,13,5,17,0.00
2013-9-22,64.1,51.6,43.9,48.0,43.8,39.7,92,76,47,30.09,29.97,5,1,7,0.00
2013-9-23,64.9,52.1,41.5,51.6,46.1,39.5,94,82,58,30.15,30.06,3,0,11,0.01
2013-9-24,68.6,55.9,46.6,54.4,49.4,44.4,95,80,54,30.08,29.98,3,0,8,0.01
2013-9-25,68.3,56.2,47.7,56.5,49.7,45.1,95,81,56,30.01,29.96,2,0,8,0.01
2013-9-26,73.8,57.8,45.6,60.2,49.8,44.3,96,78,39,30.10,29.99,3,0,9,0.01
2013-9-27,78.1,61.1,47.2,57.5,52.1,45.6,95,75,43,30.16,30.06,4,0,9,0.01
2013-9-28,79.1,64.5,51.2,64.5,56.1,49.1,94,77,50,30.07,29.83,18,3,23,0.10
2013-9-29,68.3,56.9,46.9,53.0,46.8,37.2,94,73,34,30.06,29.94,6,2,10,0.05
2013-9-30,71.9,55.8,41.3,51.1,45.8,39.3,95,73,41,30.01,29.85,4,1,9,0.01
2013-10-1,78.9,66.0,50.6,61.8,58.1,46.6,92,77,51,29.95,29.84,17,5,22,0.00
2013-10-2,76.4,61.4,48.7,57.7,48.0,36.8,94,68,27,30.12,29.96,2,0,3,0.00
2013-10-3,73.9,65.0,55.0,67.0,61.6,51.0,95,89,74,30.00,29.83,4,0,11,0.26
2013-10-4,66.8,64.1,61.4,64.7,62.1,59.6,95,93,90,30.00,29.88,7,0,8,0.19
2013-10-5,73.2,65.6,61.9,69.8,63.8,59.2,96,94,86,29.96,29.73,11,0,15,0.34
2013-10-6,63.5,53.5,46.4,57.9,45.0,39.1,90,74,52,29.76,29.67,16,6,19,0.06
2013-10-7,65.1,52.2,44.4,49.4,44.6,40.1,94,78,41,30.10,29.73,11,6,16,0.00
2013-10-8,74.3,56.3,39.1,52.6,45.3,37.2,94,71,34,30.18,30.10,10,1,14,0.01
2013-10-9,71.7,56.4,43.9,51.9,46.1,39.3,94,72,33,30.24,30.14,4,0,10,0.00
2013-10-10,72.7,55.6,41.5,55.1,47.7,39.9,96,78,43,30.18,30.06,2,0,7,0.01
2013-10-11,74.3,60.0,49.4,59.3,52.4,47.8,95,78,51,30.07,29.95,5,1,12,0.00
2013-10-12,67.4,59.6,44.5,60.9,52.0,40.9,91,77,44,30.16,29.92,13,3,16,0.10
2013-10-13,59.3,48.3,38.5,43.2,39.5,34.5,94,75,40,30.43,30.16,11,3,17,0.01
2013-10-14,59.9,47.1,34.9,47.0,40.5,32.8,94,80,55,30.44,30.15,5,0,11,0.01
2013-10-15,61.3,53.1,46.0,58.1,49.3,43.1,94,87,75,30.15,29.74,13,3,18,0.41
2013-10-16,54.0,49.7,47.2,49.1,46.3,42.6,92,88,80,29.94,29.79,13,7,16,0.01
2013-10-17,49.4,46.2,40.9,45.3,43.4,38.3,94,90,82,29.92,29.83,8,2,10,0.19
2013-10-18,47.9,43.3,36.4,42.8,38.9,34.6,94,85,72,29.97,29.83,13,5,19,0.01
2013-10-19,50.2,43.3,37.5,39.7,37.0,32.5,93,79,51,29.94,29.76,22,5,30,0.00
2013-10-20,51.8,44.5,35.5,46.7,39.5,33.8,95,83,59,29.88,29.74,11,2,14,0.04
2013-10-21,49.4,41.0,33.1,44.1,32.1,23.8,84,71,55,29.96,29.76,15,9,19,0.01
2013-10-22,43.7,35.5,29.9,32.7,28.1,24.6,90,75,55,30.00,29.92,8,4,11,0.00
2013-10-23,41.9,35.9,28.5,30.8,27.1,21.9,88,71,46,30.04,29.96,11,5,16,0.00
2013-10-24,42.0,36.4,30.6,29.1,27.0,25.0,82,69,54,30.32,30.03,12,6,17,0.00
2013-10-25,49.1,39.5,26.0,30.1,27.2,22.8,91,64,42,30.41,29.96,22,8,29,0.00
2013-10-26,49.2,45.5,39.6,36.3,30.2,26.6,72,55,44,30.08,29.81,21,11,31,0.00
2013-10-27,52.0,40.2,28.4,34.3,30.0,25.4,91,69,42,30.07,29.94,15,4,20,0.00
2013-10-28,44.6,39.2,32.3,36.6,27.8,-99.9,90,70,64,30.43,30.07,6,-156,14,0.00
2013-10-29,54.3,43.5,36.7,42.3,37.7,29.6,93,80,63,30.41,30.16,4,0,9,0.00
2013-10-30,58.9,50.9,43.8,55.4,48.2,41.3,95,90,84,30.16,29.75,7,1,16,0.03
2013-10-31,60.9,56.0,44.3,59.2,53.9,40.3,96,93,86,29.75,29.21,16,5,23,0.78
2013-11-1,45.7,43.8,42.2,42.6,40.3,37.8,92,87,84,29.75,29.32,17,8,24,0.06
2013-11-2,44.2,40.4,37.8,40.1,37.4,35.7,94,89,79,30.17,29.75,10,4,13,0.04
2013-11-3,51.4,41.2,31.1,39.4,35.3,29.5,95,81,50,30.33,30.17,4,1,9,0.01
2013-11-4,55.8,48.7,42.6,44.4,39.8,36.2,83,72,57,30.27,30.08,9,3,17,0.00
2013-11-5,55.2,50.7,46.6,49.5,46.7,43.8,93,86,75,30.26,29.91,4,1,15,0.05
2013-11-6,55.4,44.6,34.3,53.0,40.0,26.0,93,84,65,30.16,29.74,15,7,22,0.44
2013-11-7,41.1,35.5,29.7,32.1,29.1,25.7,86,77,65,30.26,30.16,12,5,16,0.00
2013-11-8,46.7,37.6,25.8,34.4,30.4,23.5,93,76,61,30.34,29.87,6,2,15,0.01
2013-11-9,52.5,47.2,40.7,40.1,36.0,26.4,77,65,54,30.08,29.79,23,14,43,0.00
2013-11-10,46.4,41.7,36.9,33.1,29.7,27.0,71,62,50,30.34,30.08,14,9,20,0.00
2013-11-11,44.2,34.1,23.1,33.9,27.0,16.4,91,76,65,30.56,30.07,13,7,17,0.13
2013-11-12,29.9,24.6,19.3,18.9,16.5,13.2,83,72,52,30.74,30.56,13,7,18,0.00
2013-11-13,40.2,30.7,20.3,22.5,17.5,12.7,80,60,35,30.61,30.13,23,12,27,0.00
2013-11-14,45.3,38.9,32.4,29.9,25.4,18.7,73,58,49,30.12,29.92,20,9,25,0.00
2013-11-15,52.5,42.4,36.7,34.5,30.9,26.9,86,64,47,29.96,29.90,11,3,16,0.00
2013-11-16,57.9,49.3,37.7,54.3,46.1,33.0,93,89,80,29.92,29.53,14,4,22,0.30
2013-11-17,63.8,52.3,40.3,59.7,48.7,34.9,95,87,77,29.66,29.03,24,10,34,1.47
2013-11-18,40.4,34.6,27.7,35.2,26.9,21.8,82,73,62,30.27,29.67,20,12,28,0.00
2013-11-19,40.4,30.2,21.3,28.6,24.1,18.0,92,79,56,30.41,30.28,4,1,9,0.00
2013-11-20,42.2,36.2,30.0,34.5,29.4,26.3,93,77,54,30.30,30.12,5,2,11,0.09
2013-11-21,44.2,40.7,36.4,39.7,37.6,34.5,95,89,82,30.25,30.13,7,2,10,0.00
2013-11-22,39.1,32.5,25.3,36.1,26.8,19.1,91,80,66,30.49,30.24,12,7,17,0.00
2013-11-23,25.4,19.1,13.2,19.4,9.3,4.6,79,65,55,30.75,30.44,19,11,29,0.00
2013-11-24,25.1,18.2,10.2,10.7,6.9,3.6,82,62,42,30.75,30.34,16,8,22,0.00
2013-11-25,30.2,26.6,22.0,25.7,20.1,9.8,88,77,55,30.34,30.07,19,11,25,0.00
2013-11-26,31.6,26.0,13.7,26.3,18.2,5.3,85,73,55,30.22,30.05,16,7,22,0.00
2013-11-27,24.4,18.0,9.7,14.7,10.0,4.3,82,71,58,30.29,30.21,12,6,17,0.00
2013-11-28,27.1,23.0,12.0,18.4,15.0,8.9,89,71,62,30.54,30.21,10,3,13,0.00
2013-11-29,32.0,22.2,8.6,22.6,15.6,5.2,89,76,54,30.68,30.41,5,1,8,0.00
2013-11-30,44.8,33.6,27.2,32.8,26.8,22.2,92,77,61,30.41,30.06,11,2,16,0.00
2013-12-1,39.8,32.1,26.4,29.7,26.6,23.9,92,81,61,30.15,30.01,6,1,11,0.00
2013-12-2,41.0,31.3,19.9,33.8,26.8,17.3,93,84,64,30.01,29.79,5,1,13,0.11
2013-12-3,40.0,37.7,33.3,38.8,36.4,31.4,96,95,93,29.79,29.70,4,1,9,0.11
2013-12-4,50.7,42.9,36.0,49.4,41.5,32.3,96,95,85,29.76,29.48,24,4,33,0.00
2013-12-5,35.7,24.1,17.4,32.2,17.1,-99.9,89,75,66,30.29,29.63,22,10,27,0.00
2013-12-6,17.4,13.3,9.7,11.9,7.1,3.3,83,76,65,30.59,30.27,12,8,16,0.00
2013-12-7,15.9,8.9,3.6,6.3,3.0,-0.6,86,77,61,30.75,30.59,12,5,16,0.00
2013-12-8,25.4,18.7,7.6,23.2,14.8,3.2,94,85,67,30.68,29.97,5,2,10,0.18
2013-12-9,24.5,12.8,-1.6,23.0,7.9,-6.3,94,81,67,30.22,29.94,25,11,31,0.00
2013-12-10,19.2,9.3,-4.4,12.0,3.3,-8.3,85,77,67,30.32,30.00,23,10,28,0.00
2013-12-11,15.0,8.0,-5.8,11.9,2.3,-9.4,88,77,59,30.59,30.30,14,6,20,0.00
2013-12-12,17.7,9.0,-3.7,12.6,2.8,-8.1,81,76,69,30.57,30.24,18,8,24,0.00
2013-12-13,28.1,22.0,14.3,23.7,17.5,10.5,87,83,74,30.25,30.18,7,3,14,0.00
2013-12-14,28.6,25.3,20.1,24.8,22.3,17.6,92,88,83,30.19,29.95,8,4,13,0.03
2013-12-15,21.4,12.7,5.4,18.3,5.4,-4.2,90,72,61,30.18,29.92,16,9,22,0.00
2013-12-16,17.9,9.6,-0.8,12.1,2.3,-99.9,89,75,51,30.22,30.06,11,-9,12,0.05
2013-12-17,32.8,25.1,14.8,25.2,19.4,12.1,92,80,62,30.09,29.94,15,10,22,0.00
2013-12-18,34.7,24.9,11.9,26.4,16.7,7.2,84,71,47,30.15,29.81,13,6,18,0.00
2013-12-19,33.1,29.7,21.0,31.3,26.4,19.0,94,88,78,29.99,29.82,8,3,13,0.04
2013-12-20,32.6,28.5,24.6,31.1,26.9,23.1,94,93,92,29.88,29.79,9,4,13,0.16
2013-12-21,32.8,28.3,24.5,31.8,27.2,23.1,96,95,93,29.92,29.67,7,3,17,0.00
2013-12-22,31.5,25.7,20.9,29.7,24.0,18.8,96,93,90,30.14,29.67,12,6,16,0.91
2013-12-23,21.2,11.1,0.1,19.5,8.0,-4.1,93,87,82,30.46,30.14,12,7,16,0.02
2013-12-24,12.3,4.1,-4.7,9.7,0.6,-8.1,89,85,79,30.61,30.39,7,2,9,0.01
2013-12-25,23.5,20.5,12.4,21.3,17.8,9.8,91,89,86,30.39,30.11,13,7,16,0.01
2013-12-26,26.7,21.2,11.2,24.0,17.9,8.3,93,87,79,30.29,30.11,12,4,15,0.00
2013-12-27,38.6,27.4,13.7,31.7,23.8,11.3,94,87,75,30.30,30.04,18,5,21,0.00
2013-12-28,41.4,36.2,23.6,34.1,30.8,21.5,95,81,73,30.08,29.77,11,6,19,0.00
2013-12-29,40.7,22.1,0.8,31.1,16.6,-4.8,91,79,67,30.25,29.75,17,10,24,0.00
2013-12-30,4.1,-0.6,-7.7,-0.6,-7.2,-13.2,84,73,54,30.39,30.25,9,4,12,0.00
2013-12-31,7.7,4.1,-3.0,4.1,-0.0,-6.6,86,83,75,30.42,30.25,9,4,11,0.03
2014-1-1,17.1,10.1,3.8,12.6,5.5,-4.0,88,81,69,30.41,30.30,9,5,15,0.02
2014-1-2,12.8,7.5,-7.9,7.3,2.1,-99.9,86,80,68,30.49,30.27,14,7,16,0.00